Time;durP1;ratioP1;P1;durP2;ratioP2;P2;SDS_P1;SDS_P2;PMS_P1;PMS_P2;Temp;Humidity;BMP_temperature;BMP_pressure;BME280_temperature;BME280_humidity;BME280_pressure;Samples;Min_cycle;Max_cycle;Signal;HPM_P1;HPM_P2
2021/04/13 00:01:24;;;;;;;2.73;0.73;;;17.80;94.20;;;;;;4979250;28;20238;-90
2021/04/13 00:04:15;;;;;;;1.90;0.63;;;18.00;94.10;;;;;;4975329;28;20245;-91
2021/04/13 00:06:48;;;;;;;2.03;0.87;;;18.10;93.10;;;;;;4978701;28;20234;-91
2021/04/13 00:09:24;;;;;;;0.97;0.50;;;18.00;93.50;;;;;;4979189;28;20242;-91
2021/04/13 00:12:02;;;;;;;1.83;0.80;;;17.80;92.70;;;;;;4979964;28;20255;-91
2021/04/13 00:14:37;;;;;;;1.97;0.77;;;17.50;92.60;;;;;;4978424;28;20215;-92
2021/04/13 00:17:10;;;;;;;1.77;0.50;;;17.40;91.90;;;;;;4980952;28;20253;-91
2021/04/13 00:19:47;;;;;;;2.27;0.87;;;17.20;92.80;;;;;;4981202;28;20234;-90
2021/04/13 00:22:18;;;;;;;1.57;0.60;;;17.30;93.40;;;;;;4977720;28;20244;-90
2021/04/13 00:24:49;;;;;;;1.00;0.50;;;17.30;93.60;;;;;;4975822;28;20231;-90
2021/04/13 00:27:24;;;;;;;2.43;0.70;;;17.30;93.10;;;;;;4974223;28;20221;-90
2021/04/13 00:30:10;;;;;;;1.53;0.67;;;17.10;92.80;;;;;;4976985;28;20214;-89
2021/04/13 00:32:47;;;;;;;1.33;0.60;;;16.90;92.70;;;;;;4976541;28;20246;-90
2021/04/13 00:35:30;;;;;;;2.40;0.50;;;17.00;93.20;;;;;;4978353;28;20268;-90
2021/04/13 00:38:32;;;;;;;2.47;0.60;;;16.80;92.50;;;;;;4981447;28;20254;-91
2021/04/13 00:41:10;;;;;;;3.57;0.70;;;16.60;92.70;;;;;;4962258;29;20234;-88
2021/04/13 00:43:46;;;;;;;1.37;0.60;;;16.50;92.90;;;;;;4976718;28;20213;-89
2021/04/13 00:46:22;;;;;;;2.53;0.60;;;16.50;93.60;;;;;;4976985;28;20289;-89
2021/04/13 00:48:55;;;;;;;2.87;0.70;;;16.60;93.60;;;;;;4991521;28;20274;-89
2021/04/13 00:51:29;;;;;;;2.67;0.57;;;16.60;93.20;;;;;;4996922;28;20195;-90
2021/04/13 00:54:04;;;;;;;1.27;0.80;;;16.70;93.30;;;;;;4996541;28;20190;-89
2021/04/13 00:56:36;;;;;;;0.83;0.63;;;16.80;94.10;;;;;;4980184;28;20257;-89
2021/04/13 00:59:11;;;;;;;1.47;0.53;;;17.10;94.60;;;;;;4979733;28;20266;-87
2021/04/13 01:01:49;;;;;;;3.53;1.00;;;17.20;94.10;;;;;;4983082;28;20565;-90
2021/04/13 01:04:22;;;;;;;3.27;0.53;;;17.10;93.20;;;;;;4980417;28;20214;-90
2021/04/13 01:07:01;;;;;;;1.27;0.70;;;17.10;93.20;;;;;;4978243;28;20223;-90
2021/04/13 01:09:32;;;;;;;3.77;0.90;;;17.20;93.20;;;;;;4977121;28;20234;-89
2021/04/13 01:12:08;;;;;;;1.87;0.70;;;17.10;93.80;;;;;;4976711;28;20648;-90
2021/04/13 01:14:39;;;;;;;2.33;0.83;;;17.20;92.40;;;;;;4978334;28;20258;-90
2021/04/13 01:17:12;;;;;;;2.53;1.07;;;17.40;92.50;;;;;;4975737;28;20215;-89
2021/04/13 01:19:51;;;;;;;4.10;0.90;;;17.60;92.10;;;;;;4978264;28;20234;-89
2021/04/13 01:22:29;;;;;;;1.10;0.77;;;17.70;92.10;;;;;;4977468;28;20612;-89
2021/04/13 01:25:02;;;;;;;1.10;0.80;;;17.80;92.10;;;;;;4978344;28;20664;-89
2021/04/13 01:27:33;;;;;;;1.53;0.70;;;18.00;92.20;;;;;;4977245;28;20203;-90
2021/04/13 01:30:09;;;;;;;2.70;0.70;;;18.30;91.70;;;;;;4976002;28;20214;-89
2021/04/13 01:32:42;;;;;;;1.10;0.77;;;18.50;92.00;;;;;;4975321;28;20238;-90
2021/04/13 01:35:16;;;;;;;2.37;0.90;;;18.20;92.70;;;;;;4975106;28;20655;-90
2021/04/13 01:37:56;;;;;;;3.20;0.90;;;17.90;92.20;;;;;;4974955;28;20734;-90
2021/04/13 01:40:33;;;;;;;2.60;1.20;;;17.80;91.80;;;;;;4976469;28;20294;-91
2021/04/13 01:43:05;;;;;;;5.27;1.00;;;17.50;90.80;;;;;;4976204;28;20245;-91
2021/04/13 01:45:36;;;;;;;2.23;0.97;;;17.20;91.00;;;;;;4975036;28;20640;-91
2021/04/13 01:48:12;;;;;;;1.90;0.90;;;17.10;90.70;;;;;;4979490;28;20234;-93
2021/04/13 01:50:45;;;;;;;0.70;0.60;;;16.90;91.00;;;;;;4975897;28;20214;-93
2021/04/13 01:53:20;;;;;;;1.43;0.77;;;16.70;90.40;;;;;;4976833;28;20289;-92
2021/04/13 01:55:52;;;;;;;1.13;0.63;;;16.40;91.40;;;;;;4976058;28;20217;-93
2021/04/13 01:58:27;;;;;;;1.63;0.73;;;16.20;90.70;;;;;;4974870;28;20619;-94
2021/04/13 02:01:09;;;;;;;2.07;0.67;;;15.90;91.00;;;;;;4976295;28;20211;-93
2021/04/13 02:03:46;;;;;;;2.17;0.57;;;15.50;91.70;;;;;;4974755;28;20211;-94
2021/04/13 02:06:20;;;;;;;2.30;0.70;;;15.20;92.00;;;;;;4975478;28;20207;-93
2021/04/13 02:08:53;;;;;;;2.10;0.40;;;15.00;91.30;;;;;;4980733;28;20207;-93
2021/04/13 02:11:26;;;;;;;1.30;0.70;;;14.80;91.30;;;;;;4981440;28;20215;-93
2021/04/13 02:14:00;;;;;;;1.50;0.70;;;14.60;91.40;;;;;;4980609;28;20218;-91
2021/04/13 02:16:34;;;;;;;1.20;0.57;;;14.40;91.60;;;;;;4975442;28;20277;-93
2021/04/13 02:19:10;;;;;;;2.90;0.80;;;14.30;91.70;;;;;;4976716;28;20573;-92
2021/04/13 02:21:44;;;;;;;1.37;0.70;;;14.10;92.60;;;;;;4959925;28;20243;-92
2021/04/13 02:24:16;;;;;;;2.03;0.90;;;14.00;92.80;;;;;;4959197;28;20684;-92
2021/04/13 02:26:51;;;;;;;1.83;0.60;;;13.90;92.20;;;;;;4958690;29;20215;-92
2021/04/13 02:29:24;;;;;;;2.10;0.60;;;13.80;91.70;;;;;;4959909;28;20217;-92
2021/04/13 02:31:58;;;;;;;2.07;0.70;;;13.70;92.70;;;;;;4959253;28;20239;-92
2021/04/13 02:34:37;;;;;;;2.47;0.60;;;13.60;92.30;;;;;;4959402;28;20231;-93
2021/04/13 02:37:13;;;;;;;1.90;0.70;;;13.50;92.60;;;;;;4958972;28;20645;-93
2021/04/13 02:39:45;;;;;;;2.53;0.87;;;13.40;92.50;;;;;;4959278;29;20576;-92
2021/04/13 02:42:20;;;;;;;1.93;0.80;;;13.30;92.50;;;;;;4960294;28;20235;-92
2021/04/13 02:44:57;;;;;;;3.33;0.80;;;13.20;92.70;;;;;;4959396;29;20227;-92
2021/04/13 02:47:30;;;;;;;2.30;0.70;;;13.00;93.60;;;;;;4958553;28;20647;-93
2021/04/13 02:50:06;;;;;;;3.23;0.90;;;12.80;93.30;;;;;;4959794;29;20216;-93
2021/04/13 02:52:43;;;;;;;1.73;0.90;;;12.70;94.00;;;;;;4963239;28;20239;-94
2021/04/13 02:55:22;;;;;;;2.13;0.80;;;12.50;95.20;;;;;;4962817;28;20215;-93
2021/04/13 02:57:55;;;;;;;1.43;0.83;;;12.40;95.10;;;;;;4960716;28;20245;-94
2021/04/13 03:00:33;;;;;;;3.97;0.83;;;12.30;94.30;;;;;;4958999;28;20594;-92
2021/04/13 03:03:09;;;;;;;1.67;0.70;;;12.20;94.70;;;;;;4959547;28;20599;-93
2021/04/13 03:05:43;;;;;;;4.80;0.87;;;12.10;95.20;;;;;;4959977;28;20218;-94
2021/04/13 03:08:15;;;;;;;1.40;0.80;;;11.90;95.50;;;;;;4958315;29;20258;-92
2021/04/13 03:10:50;;;;;;;2.37;0.93;;;11.80;96.30;;;;;;4959985;29;20211;-93
2021/04/13 03:13:24;;;;;;;3.60;1.00;;;11.60;96.90;;;;;;4975308;28;20215;-93
2021/04/13 03:15:57;;;;;;;1.20;0.73;;;11.50;97.70;;;;;;4977223;28;20212;-93
2021/04/13 03:18:33;;;;;;;1.27;1.00;;;11.30;98.60;;;;;;4971390;29;20255;-92
2021/04/13 03:21:09;;;;;;;2.40;0.83;;;11.20;98.70;;;;;;4961296;28;20211;-92
2021/04/13 03:23:42;;;;;;;1.23;0.87;;;11.10;99.60;;;;;;4971943;28;20203;-92
2021/04/13 03:26:19;;;;;;;1.97;0.90;;;10.90;99.90;;;;;;4978876;28;20249;-92
2021/04/13 03:28:55;;;;;;;1.87;0.80;;;10.80;99.90;;;;;;4978890;28;20238;-92
2021/04/13 03:31:32;;;;;;;2.60;0.90;;;10.70;99.90;;;;;;4977594;28;20261;-92
2021/04/13 03:34:05;;;;;;;4.37;1.00;;;10.50;99.90;;;;;;4979259;28;20277;-93
2021/04/13 03:36:39;;;;;;;1.80;1.13;;;10.40;99.90;;;;;;4976959;28;20241;-92
2021/04/13 03:39:12;;;;;;;2.50;0.97;;;10.30;99.90;;;;;;4984222;28;20234;-93
2021/04/13 03:41:46;;;;;;;2.87;1.47;;;10.20;99.90;;;;;;4982376;28;20684;-92
2021/04/13 03:44:20;;;;;;;2.30;0.87;;;10.10;99.90;;;;;;4983094;28;20285;-92
2021/04/13 03:46:51;;;;;;;0.93;0.80;;;10.00;99.90;;;;;;4978904;28;20245;-93
2021/04/13 03:49:31;;;;;;;2.63;1.00;;;9.90;99.90;;;;;;4981060;28;20326;-93
2021/04/13 03:52:10;;;;;;;1.53;0.80;;;9.90;99.90;;;;;;4980480;28;20237;-92
2021/04/13 03:54:45;;;;;;;4.73;0.90;;;9.80;99.90;;;;;;4981294;28;20211;-93
2021/04/13 03:57:32;;;;;;;2.57;1.00;;;9.70;99.90;;;;;;4979431;28;20233;-93
2021/04/13 04:00:05;;;;;;;4.93;1.00;;;9.70;99.90;;;;;;4980172;28;20245;-93
2021/04/13 04:02:36;;;;;;;1.57;0.80;;;9.60;99.90;;;;;;4979318;28;20254;-93
2021/04/13 04:05:15;;;;;;;2.67;1.03;;;9.50;99.90;;;;;;4964212;28;20673;-93
2021/04/13 04:07:53;;;;;;;2.47;0.93;;;9.50;99.90;;;;;;4978547;28;21106;-92
2021/04/13 04:10:34;;;;;;;3.40;0.90;;;9.50;99.90;;;;;;4979597;28;20203;-93
2021/04/13 04:13:10;;;;;;;1.20;0.90;;;9.40;99.90;;;;;;4977397;28;20222;-93
2021/04/13 04:15:43;;;;;;;1.87;0.90;;;9.30;99.90;;;;;;4980057;28;20248;-93
2021/04/13 04:18:24;;;;;;;1.97;0.87;;;9.20;99.90;;;;;;4979653;28;20645;-92
2021/04/13 04:20:58;;;;;;;1.77;1.07;;;9.20;99.90;;;;;;4979201;28;20211;-91
2021/04/13 04:23:36;;;;;;;1.70;1.03;;;9.10;99.90;;;;;;4978589;28;20318;-91
2021/04/13 04:26:08;;;;;;;2.20;1.10;;;9.10;99.90;;;;;;4985148;28;20236;-91
2021/04/13 04:28:41;;;;;;;2.07;1.27;;;9.10;99.90;;;;;;4989366;28;20737;-89
2021/04/13 04:31:36;;;;;;;2.93;1.10;;;9.00;99.90;;;;;;5003451;28;20244;-90
2021/04/13 04:34:54;;;;;;;2.00;1.20;;;8.90;99.90;;;;;;5007134;28;20232;-91
2021/04/13 04:38:02;;;;;;;3.10;1.00;;;8.80;99.90;;;;;;4969253;28;20206;-92
2021/04/13 04:40:52;;;;;;;2.10;1.00;;;8.70;99.90;;;;;;4998493;28;20253;-92
2021/04/13 04:43:43;;;;;;;1.80;0.90;;;8.60;99.90;;;;;;4998592;28;20209;-92
2021/04/13 04:46:29;;;;;;;3.73;1.00;;;8.60;99.90;;;;;;4998514;28;20601;-91
2021/04/13 04:49:05;;;;;;;3.10;1.00;;;8.50;99.90;;;;;;5000051;28;20735;-92
2021/04/13 04:51:36;;;;;;;4.30;1.00;;;8.50;99.90;;;;;;4997162;28;20669;-92
2021/04/13 04:54:08;;;;;;;1.70;1.00;;;8.40;99.90;;;;;;4997418;28;20333;-92
2021/04/13 04:56:41;;;;;;;2.93;1.03;;;8.40;99.90;;;;;;4997674;28;20214;-92
2021/04/13 04:59:15;;;;;;;1.80;1.10;;;8.40;99.90;;;;;;4997966;28;20713;-92
2021/04/13 05:01:45;;;;;;;2.30;1.00;;;8.40;99.90;;;;;;4997534;28;20205;-93
2021/04/13 05:04:17;;;;;;;1.83;0.70;;;8.30;99.90;;;;;;4998666;28;20272;-94
2021/04/13 05:06:50;;;;;;;3.13;1.10;;;8.30;99.90;;;;;;4998222;28;20659;-93
2021/04/13 05:09:21;;;;;;;1.23;0.80;;;8.30;99.90;;;;;;4997307;28;20281;-93
2021/04/13 05:11:53;;;;;;;1.97;0.90;;;8.20;99.90;;;;;;4998851;28;20244;-93
2021/04/13 05:14:24;;;;;;;3.20;1.10;;;8.20;99.90;;;;;;4998408;28;20229;-92
2021/04/13 05:16:54;;;;;;;1.43;0.80;;;8.10;99.90;;;;;;4999411;28;20221;-92
2021/04/13 05:19:26;;;;;;;0.80;0.70;;;8.10;99.90;;;;;;4998286;28;20254;-91
2021/04/13 05:21:56;;;;;;;1.97;0.60;;;8.00;99.90;;;;;;4997408;28;20234;-91
2021/04/13 05:24:27;;;;;;;1.70;0.80;;;8.00;99.90;;;;;;4999143;28;20210;-91
2021/04/13 05:27:02;;;;;;;2.07;0.80;;;8.00;99.90;;;;;;5004288;28;20233;-91
2021/04/13 05:29:37;;;;;;;2.83;0.80;;;7.90;99.90;;;;;;4981003;28;20253;-92
2021/04/13 05:32:09;;;;;;;1.27;0.77;;;7.80;99.90;;;;;;4969447;28;20210;-90
2021/04/13 05:34:39;;;;;;;0.80;0.67;;;7.80;99.90;;;;;;4990395;28;20282;-91
2021/04/13 05:37:12;;;;;;;0.83;0.53;;;7.70;99.90;;;;;;4996144;28;20207;-91
2021/04/13 05:39:42;;;;;;;2.03;0.90;;;7.70;99.90;;;;;;4994189;28;20219;-90
2021/04/13 05:42:21;;;;;;;1.47;1.10;;;7.70;99.90;;;;;;4986104;28;20702;-91
2021/04/13 05:44:51;;;;;;;1.27;0.83;;;7.60;99.90;;;;;;4986111;28;20736;-92
2021/04/13 05:47:25;;;;;;;2.77;1.00;;;7.60;99.90;;;;;;4978915;28;20663;-92
2021/04/13 05:49:56;;;;;;;1.50;0.93;;;7.50;99.90;;;;;;4980086;28;20210;-92
2021/04/13 05:52:29;;;;;;;1.77;0.90;;;7.50;99.90;;;;;;4980293;28;20242;-92
2021/04/13 05:55:02;;;;;;;2.10;0.80;;;7.40;99.90;;;;;;4984097;28;20215;-92
2021/04/13 05:57:36;;;;;;;1.20;0.90;;;7.30;99.90;;;;;;4981782;28;20206;-92
2021/04/13 06:00:08;;;;;;;2.10;1.17;;;7.30;99.90;;;;;;4985774;28;20239;-92
2021/04/13 06:02:43;;;;;;;1.23;0.67;;;7.30;99.90;;;;;;4980507;28;20277;-91
2021/04/13 06:05:15;;;;;;;2.13;1.10;;;7.20;99.90;;;;;;4984083;28;20302;-91
2021/04/13 06:07:46;;;;;;;1.83;1.00;;;7.20;99.90;;;;;;4987125;28;20207;-92
2021/04/13 06:10:18;;;;;;;1.10;0.80;;;7.10;99.90;;;;;;4988009;28;20202;-90
2021/04/13 06:12:54;;;;;;;3.57;1.50;;;7.10;99.90;;;;;;4982090;28;20230;-91
2021/04/13 06:15:28;;;;;;;1.43;0.77;;;7.00;99.90;;;;;;4985459;28;20582;-92
2021/04/13 06:17:59;;;;;;;1.10;1.00;;;7.00;99.90;;;;;;4982513;28;20211;-91
2021/04/13 06:20:32;;;;;;;2.13;0.90;;;6.90;99.90;;;;;;4982414;28;20249;-90
2021/04/13 06:23:03;;;;;;;3.40;0.90;;;6.90;99.90;;;;;;4984054;28;20234;-91
2021/04/13 06:25:35;;;;;;;1.47;0.90;;;6.90;99.90;;;;;;4983643;28;20204;-91
2021/04/13 06:28:08;;;;;;;1.70;0.80;;;6.80;99.90;;;;;;4984260;28;20214;-91
2021/04/13 06:30:41;;;;;;;0.80;0.80;;;6.90;99.90;;;;;;4983309;28;20215;-92
2021/04/13 06:33:12;;;;;;;1.40;0.70;;;6.80;99.90;;;;;;4983990;28;20589;-91
2021/04/13 06:35:45;;;;;;;3.90;0.90;;;6.80;99.90;;;;;;4983871;28;20215;-90
2021/04/13 06:38:20;;;;;;;5.20;0.90;;;6.70;99.90;;;;;;4983440;28;20215;-91
2021/04/13 06:41:25;;;;;;;1.77;0.73;;;6.70;99.90;;;;;;4986994;28;20291;-90
2021/04/13 06:44:13;;;;;;;1.23;1.00;;;6.70;99.90;;;;;;4962395;28;20206;-91
2021/04/13 06:46:49;;;;;;;1.50;0.93;;;6.60;99.90;;;;;;4985467;28;20207;-91
2021/04/13 06:49:42;;;;;;;1.33;0.80;;;6.60;99.90;;;;;;4989443;28;20211;-92
2021/04/13 06:52:23;;;;;;;0.90;0.73;;;6.70;99.90;;;;;;4991348;28;20244;-91
2021/04/13 06:55:03;;;;;;;1.37;0.77;;;6.60;99.90;;;;;;4997393;28;20208;-91
2021/04/13 06:58:02;;;;;;;1.57;0.73;;;6.60;99.90;;;;;;4995054;28;20203;-92
2021/04/13 07:00:53;;;;;;;1.93;1.00;;;6.50;99.90;;;;;;4980794;28;20281;-92
2021/04/13 07:03:30;;;;;;;1.47;0.67;;;6.50;99.90;;;;;;4979074;28;20213;-92
2021/04/13 07:06:12;;;;;;;2.13;0.67;;;6.50;99.90;;;;;;4979436;28;20198;-91
2021/04/13 07:08:47;;;;;;;2.17;0.73;;;6.40;99.90;;;;;;4979479;28;20277;-92
2021/04/13 07:11:25;;;;;;;1.07;0.80;;;6.40;99.90;;;;;;4977959;28;20273;-91
2021/04/13 07:14:03;;;;;;;3.10;1.00;;;6.40;99.90;;;;;;4978514;28;20280;-91
2021/04/13 07:16:40;;;;;;;1.90;1.00;;;6.40;99.90;;;;;;4979609;28;20217;-92
2021/04/13 07:19:18;;;;;;;1.83;0.73;;;6.40;99.90;;;;;;4979471;28;20254;-92
2021/04/13 07:21:54;;;;;;;0.77;0.50;;;6.40;99.90;;;;;;4979091;28;20298;-92
2021/04/13 07:24:29;;;;;;;1.30;0.70;;;6.40;99.90;;;;;;4959246;28;20645;-91
2021/04/13 07:27:06;;;;;;;1.00;0.70;;;6.40;99.90;;;;;;4958631;28;20203;-91
2021/04/13 07:29:40;;;;;;;0.97;0.60;;;6.40;99.90;;;;;;4964259;28;20202;-90
2021/04/13 07:32:16;;;;;;;1.40;0.80;;;6.30;99.90;;;;;;4977542;28;20211;-90
2021/04/13 07:34:49;;;;;;;2.20;0.60;;;6.30;99.90;;;;;;4977412;28;20281;-91
2021/04/13 07:37:26;;;;;;;1.50;0.63;;;6.40;99.90;;;;;;4976824;28;20309;-91
2021/04/13 07:39:57;;;;;;;1.40;1.00;;;6.30;99.90;;;;;;4982407;28;20258;-91
2021/04/13 07:42:30;;;;;;;1.23;0.80;;;6.30;99.90;;;;;;4984531;28;20241;-90
2021/04/13 07:45:23;;;;;;;1.33;0.60;;;6.30;99.90;;;;;;4983802;28;20207;-90
2021/04/13 07:48:23;;;;;;;1.20;0.80;;;6.20;99.90;;;;;;4982609;28;20628;-91
2021/04/13 07:51:20;;;;;;;3.47;1.00;;;6.20;99.90;;;;;;4980028;28;20239;-92
2021/04/13 07:54:08;;;;;;;1.80;0.90;;;6.20;99.90;;;;;;4984139;28;20205;-91
2021/04/13 07:56:47;;;;;;;1.50;0.80;;;6.10;99.90;;;;;;4997762;28;20204;-92
2021/04/13 07:59:31;;;;;;;1.00;0.70;;;6.10;99.90;;;;;;4996351;28;20241;-92
2021/04/13 08:02:01;;;;;;;1.93;0.70;;;6.10;99.90;;;;;;4980480;28;20230;-92
2021/04/13 08:04:34;;;;;;;1.03;0.80;;;6.10;99.90;;;;;;4978307;28;20215;-92
2021/04/13 08:07:14;;;;;;;1.13;0.83;;;6.10;99.90;;;;;;4980024;28;20469;-91
2021/04/13 08:09:47;;;;;;;1.97;1.00;;;6.10;99.90;;;;;;4981950;28;20290;-92
2021/04/13 08:12:25;;;;;;;1.27;1.17;;;6.00;99.90;;;;;;4979292;28;20207;-92
2021/04/13 08:15:13;;;;;;;1.07;0.70;;;5.90;99.90;;;;;;4977794;28;20207;-92
2021/04/13 08:18:01;;;;;;;2.33;0.83;;;5.90;99.90;;;;;;4977339;28;20619;-92
2021/04/13 08:20:35;;;;;;;1.33;0.80;;;5.90;99.90;;;;;;4975509;28;20261;-93
2021/04/13 08:23:08;;;;;;;1.57;1.00;;;5.90;99.90;;;;;;4976572;28;20210;-91
2021/04/13 08:25:44;;;;;;;1.10;0.70;;;5.80;99.90;;;;;;4977648;28;20243;-91
2021/04/13 08:28:23;;;;;;;1.40;0.83;;;5.80;99.90;;;;;;4978393;28;20214;-91
2021/04/13 08:34:07;;;;;;;1.13;1.03;;;5.80;99.90;;;;;;4971889;28;20226;-91
2021/04/13 08:36:50;;;;;;;1.07;0.90;;;5.80;99.90;;;;;;4975765;28;20258;-91
2021/04/13 08:39:33;;;;;;;2.33;0.87;;;5.80;99.90;;;;;;4979125;28;20321;-92
2021/04/13 08:42:12;;;;;;;1.97;0.70;;;5.80;99.90;;;;;;4976421;28;20250;-91
2021/04/13 08:44:48;;;;;;;0.93;0.83;;;5.80;99.90;;;;;;4976703;28;20230;-91
2021/04/13 08:47:24;;;;;;;1.60;0.80;;;5.80;99.90;;;;;;4980332;28;20300;-92
2021/04/13 08:49:57;;;;;;;1.63;0.60;;;5.70;99.90;;;;;;4976298;28;20207;-92
2021/04/13 08:52:42;;;;;;;1.70;0.80;;;5.70;99.90;;;;;;4975842;28;20270;-92
2021/04/13 08:55:19;;;;;;;1.80;1.10;;;5.70;99.90;;;;;;4977857;28;20238;-89
2021/04/13 08:58:05;;;;;;;1.13;0.80;;;5.70;99.90;;;;;;4976629;28;20225;-92
2021/04/13 09:00:44;;;;;;;1.23;0.77;;;5.60;99.90;;;;;;4976234;28;20305;-92
2021/04/13 09:03:17;;;;;;;1.43;1.30;;;5.60;99.90;;;;;;4977378;28;20214;-90
2021/04/13 09:05:49;;;;;;;1.67;0.97;;;5.60;99.90;;;;;;4976358;28;20215;-90
2021/04/13 09:08:31;;;;;;;1.20;0.90;;;5.60;99.90;;;;;;4976299;28;20298;-91
2021/04/13 09:11:19;;;;;;;1.40;0.90;;;5.60;99.90;;;;;;4978020;28;20207;-90
2021/04/13 09:14:02;;;;;;;1.27;1.00;;;5.60;99.90;;;;;;4980815;28;20223;-90
2021/04/13 09:16:36;;;;;;;0.80;0.80;;;5.50;99.90;;;;;;4978956;28;20229;-90
2021/04/13 09:19:22;;;;;;;3.17;0.93;;;5.50;99.90;;;;;;4982177;28;20214;-90
2021/04/13 09:21:55;;;;;;;1.87;1.00;;;5.50;99.90;;;;;;4984730;28;20214;-91
2021/04/13 09:24:41;;;;;;;4.00;1.00;;;5.50;99.90;;;;;;4983489;28;20298;-90
2021/04/13 09:27:40;;;;;;;1.27;1.07;;;5.40;99.90;;;;;;4975106;28;20213;-89
2021/04/13 09:30:32;;;;;;;2.13;1.20;;;5.40;99.90;;;;;;4979702;28;20203;-90
2021/04/13 09:33:13;;;;;;;1.20;0.90;;;5.40;99.90;;;;;;4984982;28;20211;-90
2021/04/13 09:36:12;;;;;;;2.83;1.13;;;5.40;99.90;;;;;;4985422;28;20208;-90
2021/04/13 09:39:24;;;;;;;1.57;1.00;;;5.30;99.90;;;;;;4983753;28;20652;-90
2021/04/13 09:42:08;;;;;;;0.93;0.77;;;5.20;99.90;;;;;;4985023;28;20522;-90
2021/04/13 09:45:14;;;;;;;1.87;1.00;;;5.20;99.90;;;;;;4988007;28;20207;-90
2021/04/13 09:48:11;;;;;;;1.10;0.70;;;5.10;99.90;;;;;;4975987;28;20686;-90
2021/04/13 09:50:48;;;;;;;1.73;0.90;;;5.10;99.90;;;;;;4981735;28;20215;-90
2021/04/13 09:53:48;;;;;;;0.70;0.70;;;5.00;99.90;;;;;;4978808;28;20257;-90
2021/04/13 09:56:42;;;;;;;2.10;0.90;;;4.90;99.90;;;;;;4981446;28;20254;-91
2021/04/13 09:59:45;;;;;;;1.90;1.03;;;4.90;99.90;;;;;;4979464;28;20234;-90
2021/04/13 10:02:48;;;;;;;1.53;0.90;;;4.90;99.90;;;;;;4979243;28;20217;-91
2021/04/13 10:05:21;;;;;;;1.63;0.80;;;4.80;99.90;;;;;;4978422;28;20242;-91
2021/04/13 10:07:59;;;;;;;1.47;1.00;;;4.70;99.90;;;;;;4979511;28;20247;-91
2021/04/13 10:10:36;;;;;;;1.90;0.90;;;4.70;99.90;;;;;;4983007;28;20207;-91
2021/04/13 10:13:35;;;;;;;1.47;1.20;;;4.60;99.90;;;;;;4992235;28;20210;-91
2021/04/13 10:16:15;;;;;;;1.03;0.93;;;4.60;99.90;;;;;;4994595;28;20194;-90
2021/04/13 10:19:06;;;;;;;1.87;1.17;;;4.60;99.90;;;;;;4982494;28;20214;-91
2021/04/13 10:22:32;;;;;;;1.30;0.97;;;4.50;99.90;;;;;;4976838;28;20289;-91
2021/04/13 10:25:28;;;;;;;2.27;1.00;;;4.50;99.90;;;;;;4978496;28;20207;-90
2021/04/13 10:28:34;;;;;;;1.93;1.30;;;4.50;99.90;;;;;;4978571;28;20575;-90
2021/04/13 10:31:37;;;;;;;1.20;1.00;;;4.40;99.90;;;;;;4971333;28;20277;-92
2021/04/13 10:34:36;;;;;;;1.30;0.90;;;4.50;99.90;;;;;;4978851;28;20285;-90
2021/04/13 10:37:51;;;;;;;1.23;1.10;;;4.40;99.90;;;;;;4978439;28;20298;-90
2021/04/13 10:40:54;;;;;;;1.67;1.07;;;4.40;99.90;;;;;;4980961;28;20250;-90
2021/04/13 10:44:05;;;;;;;2.87;1.17;;;4.40;99.90;;;;;;4977724;28;20317;-91
2021/04/13 10:46:46;;;;;;;3.90;1.20;;;4.30;99.90;;;;;;4980628;28;20553;-91
2021/04/13 10:49:53;;;;;;;2.70;1.23;;;4.30;99.90;;;;;;4986012;28;20222;-91
2021/04/13 10:52:50;;;;;;;1.40;1.00;;;4.30;99.90;;;;;;4967572;28;20211;-90
2021/04/13 10:55:34;;;;;;;2.17;1.10;;;4.20;99.90;;;;;;4986671;28;20279;-91
2021/04/13 10:59:02;;;;;;;3.50;1.50;;;4.20;99.90;;;;;;4985501;28;20290;-92
2021/04/13 11:02:21;;;;;;;1.53;1.00;;;4.20;99.90;;;;;;4983814;28;20774;-90
2021/04/13 11:05:27;;;;;;;1.33;1.10;;;4.10;99.90;;;;;;4959787;28;20273;-91
2021/04/13 11:08:33;;;;;;;1.73;1.07;;;4.10;99.90;;;;;;4957880;29;20291;-90
2021/04/13 11:11:51;;;;;;;1.83;1.20;;;4.00;99.90;;;;;;4980647;28;20673;-90
2021/04/13 11:15:03;;;;;;;4.00;1.13;;;3.90;99.90;;;;;;4978214;28;20664;-90
2021/04/13 11:17:57;;;;;;;1.63;0.87;;;3.90;99.90;;;;;;4958703;29;20273;-90
2021/04/13 11:21:00;;;;;;;2.33;1.37;;;3.90;99.90;;;;;;4959324;29;20588;-91
2021/04/13 11:23:54;;;;;;;2.70;1.10;;;3.90;99.90;;;;;;4958679;28;20219;-90
2021/04/13 11:27:01;;;;;;;2.67;1.27;;;3.90;99.90;;;;;;4961262;28;20207;-91
2021/04/13 11:30:08;;;;;;;3.80;1.30;;;3.80;99.90;;;;;;4958042;28;20298;-90
2021/04/13 11:33:18;;;;;;;1.00;0.90;;;3.80;99.90;;;;;;4958779;29;20259;-90
2021/04/13 11:35:58;;;;;;;1.93;1.07;;;3.80;99.90;;;;;;4962012;28;20215;-90
2021/04/13 11:38:48;;;;;;;2.57;1.20;;;3.80;99.90;;;;;;4965524;28;20208;-90
2021/04/13 11:42:06;;;;;;;1.57;0.97;;;3.80;99.90;;;;;;4964437;28;20235;-90
2021/04/13 11:44:43;;;;;;;1.33;0.87;;;3.80;99.90;;;;;;4980610;28;20219;-90
2021/04/13 11:47:21;;;;;;;3.23;1.03;;;3.70;99.90;;;;;;4979053;28;20207;-90
2021/04/13 11:50:08;;;;;;;1.43;1.10;;;3.70;99.90;;;;;;4978654;28;20270;-90
2021/04/13 11:52:51;;;;;;;1.47;1.17;;;3.70;99.90;;;;;;4976168;28;20632;-90
2021/04/13 11:55:43;;;;;;;1.50;1.00;;;3.60;99.90;;;;;;4977215;28;20238;-90
2021/04/13 11:58:20;;;;;;;2.60;1.13;;;3.60;99.90;;;;;;4977728;28;20306;-91
2021/04/13 12:00:52;;;;;;;2.07;1.10;;;3.60;99.90;;;;;;4961781;28;20230;-90
2021/04/13 12:03:31;;;;;;;1.17;1.07;;;3.50;99.90;;;;;;4975220;28;20262;-90
2021/04/13 12:06:05;;;;;;;1.57;0.87;;;3.50;99.90;;;;;;4976636;28;20206;-91
2021/04/13 12:08:54;;;;;;;3.17;1.30;;;3.50;99.90;;;;;;4976917;28;20215;-91
2021/04/13 12:11:43;;;;;;;1.87;0.90;;;3.50;99.90;;;;;;4976296;28;20219;-90
2021/04/13 12:14:38;;;;;;;1.43;1.10;;;3.50;99.90;;;;;;4977054;28;20215;-89
2021/04/13 12:17:28;;;;;;;2.30;0.90;;;3.50;99.90;;;;;;4970217;28;20234;-91
2021/04/13 12:20:34;;;;;;;3.00;1.93;;;3.50;99.90;;;;;;4981951;28;20229;-90
2021/04/13 12:23:47;;;;;;;2.27;0.90;;;3.40;99.90;;;;;;4977255;28;20644;-91
2021/04/13 12:26:33;;;;;;;2.37;0.93;;;3.40;99.90;;;;;;4984104;28;20675;-90
2021/04/13 12:29:34;;;;;;;1.47;0.77;;;3.40;99.90;;;;;;4991569;28;20282;-89
2021/04/13 12:32:24;;;;;;;1.80;0.80;;;3.40;99.90;;;;;;4989382;28;20225;-90
2021/04/13 12:34:57;;;;;;;1.27;0.97;;;3.40;99.90;;;;;;4979862;28;20222;-90
2021/04/13 12:37:43;;;;;;;1.20;0.90;;;3.40;99.90;;;;;;4978926;28;20215;-91
2021/04/13 12:40:34;;;;;;;2.93;0.93;;;3.40;99.90;;;;;;4973220;28;20318;-90
2021/04/13 12:43:26;;;;;;;1.63;0.87;;;3.40;99.90;;;;;;4956368;28;20203;-91
2021/04/13 12:45:57;;;;;;;1.30;1.00;;;3.40;99.90;;;;;;4950201;29;20211;-90
2021/04/13 12:48:43;;;;;;;1.67;1.00;;;3.40;99.90;;;;;;4956967;28;20220;-89
2021/04/13 12:51:30;;;;;;;1.20;1.00;;;3.40;99.90;;;;;;4955982;28;20215;-90
2021/04/13 12:54:16;;;;;;;2.30;1.27;;;3.40;99.90;;;;;;4957492;28;20215;-90
2021/04/13 12:56:56;;;;;;;3.00;1.07;;;3.40;99.90;;;;;;4956797;28;20207;-90
2021/04/13 12:59:29;;;;;;;1.07;0.90;;;3.30;99.90;;;;;;4958994;29;20215;-90
2021/04/13 13:02:00;;;;;;;1.70;1.20;;;3.30;99.90;;;;;;4954518;29;20422;-89
2021/04/13 13:04:40;;;;;;;2.33;1.20;;;3.30;99.90;;;;;;4958440;28;20207;-90
2021/04/13 13:07:27;;;;;;;5.17;1.17;;;3.30;99.90;;;;;;4956642;28;20205;-90
2021/04/13 13:09:58;;;;;;;1.93;1.10;;;3.20;99.90;;;;;;4964202;28;20234;-90
2021/04/13 13:12:33;;;;;;;1.57;1.10;;;3.20;99.90;;;;;;4955692;29;20570;-90
2021/04/13 13:15:07;;;;;;;1.83;1.00;;;3.10;99.90;;;;;;4955315;29;20242;-90
2021/04/13 13:17:40;;;;;;;1.47;0.97;;;3.20;99.90;;;;;;4959127;28;20655;-90
2021/04/13 13:20:16;;;;;;;3.03;1.20;;;3.20;99.90;;;;;;4956624;29;20288;-90
2021/04/13 13:22:51;;;;;;;1.63;1.10;;;3.10;99.90;;;;;;4955740;29;20215;-91
2021/04/13 13:25:26;;;;;;;1.40;1.03;;;3.00;99.90;;;;;;4960812;29;20558;-89
2021/04/13 13:28:08;;;;;;;1.83;1.07;;;3.00;99.90;;;;;;4963676;29;20238;-90
2021/04/13 13:30:46;;;;;;;1.50;1.10;;;3.00;99.90;;;;;;4964829;29;20208;-90
2021/04/13 13:33:19;;;;;;;3.20;1.50;;;3.00;99.90;;;;;;4963783;28;20289;-91
2021/04/13 13:35:50;;;;;;;4.37;1.30;;;3.00;99.90;;;;;;4957771;28;20216;-91
2021/04/13 13:38:23;;;;;;;2.30;1.40;;;2.90;99.90;;;;;;4964579;28;20671;-91
2021/04/13 13:40:54;;;;;;;1.83;1.27;;;2.90;99.90;;;;;;4963931;28;20235;-91
2021/04/13 13:43:26;;;;;;;4.03;1.17;;;2.90;99.90;;;;;;4960826;28;20215;-91
2021/04/13 13:46:12;;;;;;;2.07;1.00;;;2.90;99.90;;;;;;4956590;29;20587;-91
2021/04/13 13:48:42;;;;;;;2.17;1.40;;;2.90;99.90;;;;;;4968375;28;20226;-90
2021/04/13 13:51:23;;;;;;;1.63;1.17;;;2.90;99.90;;;;;;4982231;28;20210;-90
2021/04/13 13:53:56;;;;;;;1.40;1.20;;;2.90;99.90;;;;;;4983738;28;20211;-90
2021/04/13 13:56:32;;;;;;;2.63;1.30;;;2.90;99.90;;;;;;4980079;28;20293;-91
2021/04/13 13:59:21;;;;;;;2.10;1.13;;;2.90;99.90;;;;;;4980921;28;20233;-90
2021/04/13 14:02:08;;;;;;;1.77;1.30;;;3.00;99.90;;;;;;4977968;28;20297;-91
2021/04/13 14:04:41;;;;;;;2.63;1.10;;;3.00;99.90;;;;;;4975459;28;20207;-91
2021/04/13 14:07:24;;;;;;;1.47;1.00;;;3.00;99.90;;;;;;4977593;28;20208;-90
2021/04/13 14:10:11;;;;;;;3.30;1.23;;;3.00;99.90;;;;;;4974404;28;20302;-90